sensor_id;sensor_type;location;lat;lon;timestamp;P1;durP1;ratioP1;P2;durP2;ratioP2
71176;SDS011;58877;51.992;4.504;2023-07-24T00:02:21;3.05;;;3.02;;
71176;SDS011;58877;51.992;4.504;2023-07-24T00:04:50;3.04;;;3.02;;
71176;SDS011;58877;51.992;4.504;2023-07-24T00:07:15;3.00;;;2.99;;
71176;SDS011;58877;51.992;4.504;2023-07-24T00:09:44;3.19;;;3.17;;
71176;SDS011;58877;51.992;4.504;2023-07-24T00:12:09;2.81;;;2.81;;
71176;SDS011;58877;51.992;4.504;2023-07-24T00:14:38;3.36;;;3.36;;
71176;SDS011;58877;51.992;4.504;2023-07-24T00:17:11;2.91;;;2.91;;
71176;SDS011;58877;51.992;4.504;2023-07-24T00:19:40;2.92;;;2.92;;
71176;SDS011;58877;51.992;4.504;2023-07-24T00:22:10;2.82;;;2.82;;
71176;SDS011;58877;51.992;4.504;2023-07-24T00:24:35;2.85;;;2.84;;
71176;SDS011;58877;51.992;4.504;2023-07-24T00:27:13;3.08;;;3.06;;
71176;SDS011;58877;51.992;4.504;2023-07-24T00:29:41;3.00;;;2.98;;
71176;SDS011;58877;51.992;4.504;2023-07-24T00:32:08;3.10;;;3.08;;
71176;SDS011;58877;51.992;4.504;2023-07-24T00:34:34;2.83;;;2.83;;
71176;SDS011;58877;51.992;4.504;2023-07-24T00:36:59;3.02;;;3.02;;
71176;SDS011;58877;51.992;4.504;2023-07-24T00:39:25;3.18;;;3.18;;
71176;SDS011;58877;51.992;4.504;2023-07-24T00:41:53;2.90;;;2.90;;
71176;SDS011;58877;51.992;4.504;2023-07-24T00:44:22;3.10;;;3.10;;
71176;SDS011;58877;51.992;4.504;2023-07-24T00:46:51;3.25;;;3.25;;
71176;SDS011;58877;51.992;4.504;2023-07-24T00:49:19;3.13;;;3.13;;
71176;SDS011;58877;51.992;4.504;2023-07-24T00:51:46;2.63;;;2.63;;
71176;SDS011;58877;51.992;4.504;2023-07-24T00:54:13;3.25;;;3.25;;
71176;SDS011;58877;51.992;4.504;2023-07-24T00:56:43;3.14;;;3.14;;
71176;SDS011;58877;51.992;4.504;2023-07-24T00:59:11;3.14;;;3.14;;
71176;SDS011;58877;51.992;4.504;2023-07-24T01:01:37;2.87;;;2.87;;
71176;SDS011;58877;51.992;4.504;2023-07-24T01:04:05;3.05;;;3.05;;
71176;SDS011;58877;51.992;4.504;2023-07-24T01:06:33;3.07;;;3.07;;
71176;SDS011;58877;51.992;4.504;2023-07-24T01:08:59;3.09;;;3.09;;
71176;SDS011;58877;51.992;4.504;2023-07-24T01:11:39;2.68;;;2.68;;
71176;SDS011;58877;51.992;4.504;2023-07-24T01:14:27;3.00;;;3.00;;
71176;SDS011;58877;51.992;4.504;2023-07-24T01:17:02;2.95;;;2.95;;
71176;SDS011;58877;51.992;4.504;2023-07-24T01:19:45;3.17;;;3.17;;
71176;SDS011;58877;51.992;4.504;2023-07-24T01:27:40;3.54;;;3.54;;
71176;SDS011;58877;51.992;4.504;2023-07-24T01:30:09;3.74;;;3.74;;
71176;SDS011;58877;51.992;4.504;2023-07-24T01:32:39;3.94;;;3.94;;
71176;SDS011;58877;51.992;4.504;2023-07-24T01:35:05;3.79;;;3.79;;
71176;SDS011;58877;51.992;4.504;2023-07-24T01:37:34;3.51;;;3.51;;
71176;SDS011;58877;51.992;4.504;2023-07-24T01:40:05;3.68;;;3.68;;
71176;SDS011;58877;51.992;4.504;2023-07-24T01:42:36;4.10;;;4.10;;
71176;SDS011;58877;51.992;4.504;2023-07-24T01:45:02;4.25;;;4.23;;
71176;SDS011;58877;51.992;4.504;2023-07-24T01:47:33;4.12;;;4.10;;
71176;SDS011;58877;51.992;4.504;2023-07-24T01:49:58;4.38;;;4.37;;
71176;SDS011;58877;51.992;4.504;2023-07-24T01:52:25;3.84;;;3.83;;
71176;SDS011;58877;51.992;4.504;2023-07-24T01:54:51;4.17;;;4.16;;
71176;SDS011;58877;51.992;4.504;2023-07-24T01:57:19;4.47;;;4.44;;
71176;SDS011;58877;51.992;4.504;2023-07-24T01:59:45;4.35;;;4.34;;
71176;SDS011;58877;51.992;4.504;2023-07-24T02:02:11;4.09;;;4.09;;
71176;SDS011;58877;51.992;4.504;2023-07-24T02:04:37;4.44;;;4.44;;
71176;SDS011;58877;51.992;4.504;2023-07-24T02:07:05;4.20;;;4.20;;
71176;SDS011;58877;51.992;4.504;2023-07-24T02:09:31;4.07;;;4.07;;
71176;SDS011;58877;51.992;4.504;2023-07-24T02:12:00;4.14;;;4.13;;
71176;SDS011;58877;51.992;4.504;2023-07-24T02:14:27;4.47;;;4.46;;
71176;SDS011;58877;51.992;4.504;2023-07-24T02:16:53;4.50;;;4.49;;
71176;SDS011;58877;51.992;4.504;2023-07-24T02:19:22;4.16;;;4.14;;
71176;SDS011;58877;51.992;4.504;2023-07-24T02:21:48;4.95;;;4.91;;
71176;SDS011;58877;51.992;4.504;2023-07-24T02:24:14;4.00;;;3.99;;
71176;SDS011;58877;51.992;4.504;2023-07-24T02:26:43;4.49;;;4.48;;
71176;SDS011;58877;51.992;4.504;2023-07-24T02:29:10;4.22;;;4.21;;
71176;SDS011;58877;51.992;4.504;2023-07-24T02:31:38;4.48;;;4.48;;
71176;SDS011;58877;51.992;4.504;2023-07-24T02:34:05;4.51;;;4.51;;
71176;SDS011;58877;51.992;4.504;2023-07-24T02:36:34;4.71;;;4.71;;
71176;SDS011;58877;51.992;4.504;2023-07-24T02:39:00;4.27;;;4.27;;
71176;SDS011;58877;51.992;4.504;2023-07-24T02:41:25;4.14;;;4.14;;
71176;SDS011;58877;51.992;4.504;2023-07-24T02:43:51;4.37;;;4.37;;
71176;SDS011;58877;51.992;4.504;2023-07-24T02:46:17;4.34;;;4.33;;
71176;SDS011;58877;51.992;4.504;2023-07-24T02:48:43;4.35;;;4.34;;
71176;SDS011;58877;51.992;4.504;2023-07-24T02:51:10;4.34;;;4.32;;
71176;SDS011;58877;51.992;4.504;2023-07-24T02:53:36;4.41;;;4.40;;
71176;SDS011;58877;51.992;4.504;2023-07-24T02:56:02;4.63;;;4.63;;
71176;SDS011;58877;51.992;4.504;2023-07-24T02:58:31;4.53;;;4.53;;
71176;SDS011;58877;51.992;4.504;2023-07-24T03:01:03;4.51;;;4.51;;
71176;SDS011;58877;51.992;4.504;2023-07-24T03:03:31;4.47;;;4.46;;
71176;SDS011;58877;51.992;4.504;2023-07-24T03:05:57;4.76;;;4.76;;
71176;SDS011;58877;51.992;4.504;2023-07-24T03:08:23;4.68;;;4.67;;
71176;SDS011;58877;51.992;4.504;2023-07-24T03:10:49;4.71;;;4.70;;
71176;SDS011;58877;51.992;4.504;2023-07-24T03:13:14;4.39;;;4.37;;
71176;SDS011;58877;51.992;4.504;2023-07-24T03:15:40;4.37;;;4.36;;
71176;SDS011;58877;51.992;4.504;2023-07-24T03:18:06;4.52;;;4.52;;
71176;SDS011;58877;51.992;4.504;2023-07-24T03:20:35;4.12;;;4.12;;
71176;SDS011;58877;51.992;4.504;2023-07-24T03:23:01;4.57;;;4.57;;
71176;SDS011;58877;51.992;4.504;2023-07-24T03:25:30;4.34;;;4.34;;
71176;SDS011;58877;51.992;4.504;2023-07-24T03:27:56;4.07;;;4.07;;
71176;SDS011;58877;51.992;4.504;2023-07-24T03:30:22;4.61;;;4.57;;
71176;SDS011;58877;51.992;4.504;2023-07-24T03:32:47;4.02;;;3.99;;
71176;SDS011;58877;51.992;4.504;2023-07-24T03:35:13;4.48;;;4.46;;
71176;SDS011;58877;51.992;4.504;2023-07-24T03:37:39;4.19;;;4.16;;
71176;SDS011;58877;51.992;4.504;2023-07-24T03:40:08;3.81;;;3.80;;
71176;SDS011;58877;51.992;4.504;2023-07-24T03:42:36;3.99;;;3.98;;
71176;SDS011;58877;51.992;4.504;2023-07-24T03:45:02;4.00;;;3.99;;
71176;SDS011;58877;51.992;4.504;2023-07-24T03:47:28;4.24;;;4.20;;
71176;SDS011;58877;51.992;4.504;2023-07-24T03:49:54;3.83;;;3.80;;
71176;SDS011;58877;51.992;4.504;2023-07-24T03:52:21;3.63;;;3.61;;
71176;SDS011;58877;51.992;4.504;2023-07-24T03:54:46;4.18;;;4.17;;
71176;SDS011;58877;51.992;4.504;2023-07-24T03:57:12;4.05;;;4.05;;
71176;SDS011;58877;51.992;4.504;2023-07-24T03:59:38;3.96;;;3.91;;
71176;SDS011;58877;51.992;4.504;2023-07-24T04:02:04;3.51;;;3.46;;
71176;SDS011;58877;51.992;4.504;2023-07-24T04:04:33;3.73;;;3.70;;
71176;SDS011;58877;51.992;4.504;2023-07-24T04:06:59;3.84;;;3.78;;
71176;SDS011;58877;51.992;4.504;2023-07-24T04:09:25;4.14;;;4.03;;
71176;SDS011;58877;51.992;4.504;2023-07-24T04:11:52;3.97;;;3.85;;
71176;SDS011;58877;51.992;4.504;2023-07-24T04:14:18;4.07;;;3.98;;
71176;SDS011;58877;51.992;4.504;2023-07-24T04:16:44;4.13;;;4.05;;
71176;SDS011;58877;51.992;4.504;2023-07-24T04:19:10;3.64;;;3.55;;
71176;SDS011;58877;51.992;4.504;2023-07-24T04:21:39;3.91;;;3.85;;
71176;SDS011;58877;51.992;4.504;2023-07-24T04:24:05;4.03;;;3.96;;
71176;SDS011;58877;51.992;4.504;2023-07-24T04:26:31;3.74;;;3.63;;
71176;SDS011;58877;51.992;4.504;2023-07-24T04:29:01;4.02;;;3.86;;
71176;SDS011;58877;51.992;4.504;2023-07-24T04:31:27;4.06;;;3.84;;
71176;SDS011;58877;51.992;4.504;2023-07-24T04:33:53;3.98;;;3.82;;
71176;SDS011;58877;51.992;4.504;2023-07-24T04:36:18;3.98;;;3.83;;
71176;SDS011;58877;51.992;4.504;2023-07-24T04:38:44;4.33;;;4.19;;
71176;SDS011;58877;51.992;4.504;2023-07-24T04:41:19;3.85;;;3.78;;
71176;SDS011;58877;51.992;4.504;2023-07-24T04:43:45;3.70;;;3.65;;
71176;SDS011;58877;51.992;4.504;2023-07-24T04:46:11;3.41;;;3.36;;
71176;SDS011;58877;51.992;4.504;2023-07-24T04:48:37;3.73;;;3.66;;
71176;SDS011;58877;51.992;4.504;2023-07-24T04:51:11;3.29;;;3.22;;
71176;SDS011;58877;51.992;4.504;2023-07-24T04:53:41;4.17;;;4.04;;
71176;SDS011;58877;51.992;4.504;2023-07-24T04:56:06;3.51;;;3.40;;
71176;SDS011;58877;51.992;4.504;2023-07-24T04:58:32;3.48;;;3.36;;
71176;SDS011;58877;51.992;4.504;2023-07-24T05:01:02;3.44;;;3.32;;
71176;SDS011;58877;51.992;4.504;2023-07-24T05:03:29;3.63;;;3.39;;
71176;SDS011;58877;51.992;4.504;2023-07-24T05:05:54;3.98;;;3.60;;
71176;SDS011;58877;51.992;4.504;2023-07-24T05:08:21;3.85;;;3.54;;
71176;SDS011;58877;51.992;4.504;2023-07-24T05:10:47;3.48;;;3.26;;
71176;SDS011;58877;51.992;4.504;2023-07-24T05:13:20;3.42;;;3.24;;
71176;SDS011;58877;51.992;4.504;2023-07-24T05:15:46;3.90;;;3.69;;
71176;SDS011;58877;51.992;4.504;2023-07-24T05:18:15;3.40;;;3.19;;
71176;SDS011;58877;51.992;4.504;2023-07-24T05:20:47;3.69;;;3.50;;
71176;SDS011;58877;51.992;4.504;2023-07-24T05:23:16;3.98;;;3.66;;
71176;SDS011;58877;51.992;4.504;2023-07-24T05:25:42;3.20;;;2.97;;
71176;SDS011;58877;51.992;4.504;2023-07-24T05:28:08;3.30;;;3.09;;
71176;SDS011;58877;51.992;4.504;2023-07-24T05:30:40;3.31;;;3.10;;
71176;SDS011;58877;51.992;4.504;2023-07-24T05:33:06;3.60;;;3.30;;
71176;SDS011;58877;51.992;4.504;2023-07-24T05:35:32;3.29;;;3.04;;
71176;SDS011;58877;51.992;4.504;2023-07-24T05:38:12;3.40;;;3.17;;
71176;SDS011;58877;51.992;4.504;2023-07-24T05:40:41;2.86;;;2.70;;
71176;SDS011;58877;51.992;4.504;2023-07-24T05:43:07;3.62;;;3.41;;
71176;SDS011;58877;51.992;4.504;2023-07-24T05:45:42;2.83;;;2.68;;
71176;SDS011;58877;51.992;4.504;2023-07-24T05:48:15;3.10;;;2.94;;
71176;SDS011;58877;51.992;4.504;2023-07-24T05:50:51;3.01;;;2.86;;
71176;SDS011;58877;51.992;4.504;2023-07-24T05:53:26;2.88;;;2.75;;
71176;SDS011;58877;51.992;4.504;2023-07-24T05:55:58;2.90;;;2.82;;
71176;SDS011;58877;51.992;4.504;2023-07-24T05:58:29;2.76;;;2.73;;
71176;SDS011;58877;51.992;4.504;2023-07-24T06:00:58;2.96;;;2.91;;
71176;SDS011;58877;51.992;4.504;2023-07-24T06:03:35;2.99;;;2.89;;
71176;SDS011;58877;51.992;4.504;2023-07-24T06:06:01;2.86;;;2.80;;
71176;SDS011;58877;51.992;4.504;2023-07-24T06:08:27;3.26;;;3.16;;
71176;SDS011;58877;51.992;4.504;2023-07-24T06:10:56;3.31;;;3.18;;
71176;SDS011;58877;51.992;4.504;2023-07-24T06:13:22;2.91;;;2.80;;
71176;SDS011;58877;51.992;4.504;2023-07-24T06:15:48;3.00;;;2.92;;
71176;SDS011;58877;51.992;4.504;2023-07-24T06:18:17;2.86;;;2.80;;
71176;SDS011;58877;51.992;4.504;2023-07-24T06:20:43;3.24;;;3.10;;
71176;SDS011;58877;51.992;4.504;2023-07-24T06:23:09;3.28;;;3.11;;
71176;SDS011;58877;51.992;4.504;2023-07-24T06:25:34;2.95;;;2.82;;
71176;SDS011;58877;51.992;4.504;2023-07-24T06:28:00;2.85;;;2.72;;
71176;SDS011;58877;51.992;4.504;2023-07-24T06:30:26;3.01;;;2.93;;
71176;SDS011;58877;51.992;4.504;2023-07-24T06:32:52;3.01;;;2.93;;
71176;SDS011;58877;51.992;4.504;2023-07-24T06:35:18;3.49;;;3.39;;
71176;SDS011;58877;51.992;4.504;2023-07-24T06:37:44;3.24;;;3.14;;
71176;SDS011;58877;51.992;4.504;2023-07-24T06:40:14;3.13;;;3.05;;
71176;SDS011;58877;51.992;4.504;2023-07-24T06:42:42;3.15;;;3.08;;
71176;SDS011;58877;51.992;4.504;2023-07-24T06:45:08;3.10;;;2.98;;
71176;SDS011;58877;51.992;4.504;2023-07-24T06:47:39;3.60;;;3.39;;
71176;SDS011;58877;51.992;4.504;2023-07-24T06:50:08;3.23;;;3.06;;
71176;SDS011;58877;51.992;4.504;2023-07-24T06:52:36;4.05;;;3.84;;
71176;SDS011;58877;51.992;4.504;2023-07-24T06:55:14;3.14;;;2.99;;
71176;SDS011;58877;51.992;4.504;2023-07-24T06:57:42;3.71;;;3.54;;
71176;SDS011;58877;51.992;4.504;2023-07-24T07:00:09;3.59;;;3.39;;
71176;SDS011;58877;51.992;4.504;2023-07-24T07:02:39;3.38;;;3.23;;
71176;SDS011;58877;51.992;4.504;2023-07-24T07:05:09;3.39;;;3.26;;
71176;SDS011;58877;51.992;4.504;2023-07-24T07:07:38;3.71;;;3.59;;
71176;SDS011;58877;51.992;4.504;2023-07-24T07:10:07;2.95;;;2.89;;
71176;SDS011;58877;51.992;4.504;2023-07-24T07:12:36;3.53;;;3.39;;
71176;SDS011;58877;51.992;4.504;2023-07-24T07:15:20;3.86;;;3.72;;
71176;SDS011;58877;51.992;4.504;2023-07-24T07:17:46;3.97;;;3.76;;
71176;SDS011;58877;51.992;4.504;2023-07-24T07:20:11;3.68;;;3.43;;
71176;SDS011;58877;51.992;4.504;2023-07-24T07:22:45;3.39;;;3.23;;
71176;SDS011;58877;51.992;4.504;2023-07-24T07:25:10;3.25;;;3.15;;
71176;SDS011;58877;51.992;4.504;2023-07-24T07:27:36;3.74;;;3.64;;
71176;SDS011;58877;51.992;4.504;2023-07-24T07:30:09;3.22;;;3.14;;
71176;SDS011;58877;51.992;4.504;2023-07-24T07:32:36;3.22;;;3.15;;
71176;SDS011;58877;51.992;4.504;2023-07-24T07:35:04;3.25;;;3.17;;
71176;SDS011;58877;51.992;4.504;2023-07-24T07:37:33;3.03;;;2.97;;
71176;SDS011;58877;51.992;4.504;2023-07-24T07:39:58;3.36;;;3.27;;
71176;SDS011;58877;51.992;4.504;2023-07-24T07:42:26;2.93;;;2.84;;
71176;SDS011;58877;51.992;4.504;2023-07-24T07:44:52;2.92;;;2.85;;
71176;SDS011;58877;51.992;4.504;2023-07-24T07:47:18;3.33;;;3.26;;
71176;SDS011;58877;51.992;4.504;2023-07-24T07:49:44;3.04;;;2.97;;
71176;SDS011;58877;51.992;4.504;2023-07-24T07:52:10;3.63;;;3.56;;
71176;SDS011;58877;51.992;4.504;2023-07-24T07:54:36;2.95;;;2.86;;
71176;SDS011;58877;51.992;4.504;2023-07-24T07:57:03;2.91;;;2.85;;
71176;SDS011;58877;51.992;4.504;2023-07-24T07:59:29;2.81;;;2.78;;
71176;SDS011;58877;51.992;4.504;2023-07-24T08:01:55;2.76;;;2.75;;
71176;SDS011;58877;51.992;4.504;2023-07-24T08:04:21;3.53;;;3.40;;
71176;SDS011;58877;51.992;4.504;2023-07-24T08:09:46;3.17;;;3.09;;
71176;SDS011;58877;51.992;4.504;2023-07-24T08:12:15;2.85;;;2.76;;
71176;SDS011;58877;51.992;4.504;2023-07-24T08:14:56;2.82;;;2.74;;
71176;SDS011;58877;51.992;4.504;2023-07-24T08:17:31;2.85;;;2.76;;
71176;SDS011;58877;51.992;4.504;2023-07-24T08:20:09;2.63;;;2.57;;
71176;SDS011;58877;51.992;4.504;2023-07-24T08:22:37;3.04;;;2.97;;
71176;SDS011;58877;51.992;4.504;2023-07-24T08:25:03;3.08;;;2.95;;
71176;SDS011;58877;51.992;4.504;2023-07-24T08:27:32;3.18;;;3.01;;
71176;SDS011;58877;51.992;4.504;2023-07-24T08:29:59;2.88;;;2.72;;
71176;SDS011;58877;51.992;4.504;2023-07-24T08:32:28;2.71;;;2.58;;
71176;SDS011;58877;51.992;4.504;2023-07-24T08:35:03;3.11;;;2.97;;
71176;SDS011;58877;51.992;4.504;2023-07-24T08:43:32;2.99;;;2.91;;
71176;SDS011;58877;51.992;4.504;2023-07-24T08:46:06;3.21;;;3.13;;
71176;SDS011;58877;51.992;4.504;2023-07-24T08:48:52;3.30;;;3.21;;
71176;SDS011;58877;51.992;4.504;2023-07-24T08:51:24;3.38;;;3.27;;
71176;SDS011;58877;51.992;4.504;2023-07-24T08:53:57;3.15;;;3.07;;
71176;SDS011;58877;51.992;4.504;2023-07-24T08:56:49;2.68;;;2.66;;
71176;SDS011;58877;51.992;4.504;2023-07-24T08:59:23;3.33;;;3.23;;
71176;SDS011;58877;51.992;4.504;2023-07-24T09:01:49;2.83;;;2.77;;
71176;SDS011;58877;51.992;4.504;2023-07-24T09:04:18;3.00;;;2.92;;
71176;SDS011;58877;51.992;4.504;2023-07-24T09:06:56;2.96;;;2.89;;
71176;SDS011;58877;51.992;4.504;2023-07-24T09:09:34;2.56;;;2.53;;
71176;SDS011;58877;51.992;4.504;2023-07-24T09:12:04;2.31;;;2.31;;
71176;SDS011;58877;51.992;4.504;2023-07-24T09:14:42;2.56;;;2.56;;
71176;SDS011;58877;51.992;4.504;2023-07-24T09:17:10;2.47;;;2.47;;
71176;SDS011;58877;51.992;4.504;2023-07-24T09:19:54;2.49;;;2.49;;
71176;SDS011;58877;51.992;4.504;2023-07-24T09:23:02;2.43;;;2.43;;
71176;SDS011;58877;51.992;4.504;2023-07-24T09:25:36;2.82;;;2.79;;
71176;SDS011;58877;51.992;4.504;2023-07-24T09:28:12;2.87;;;2.79;;
71176;SDS011;58877;51.992;4.504;2023-07-24T09:31:36;2.60;;;2.52;;
71176;SDS011;58877;51.992;4.504;2023-07-24T09:34:13;2.80;;;2.71;;
71176;SDS011;58877;51.992;4.504;2023-07-24T09:36:50;2.64;;;2.57;;
71176;SDS011;58877;51.992;4.504;2023-07-24T09:39:54;2.65;;;2.62;;
71176;SDS011;58877;51.992;4.504;2023-07-24T09:42:44;3.04;;;3.03;;
71176;SDS011;58877;51.992;4.504;2023-07-24T09:48:30;2.60;;;2.59;;
71176;SDS011;58877;51.992;4.504;2023-07-24T09:51:00;2.76;;;2.76;;
71176;SDS011;58877;51.992;4.504;2023-07-24T09:53:33;2.94;;;2.94;;
71176;SDS011;58877;51.992;4.504;2023-07-24T09:56:22;2.88;;;2.88;;
71176;SDS011;58877;51.992;4.504;2023-07-24T09:58:57;2.76;;;2.76;;
71176;SDS011;58877;51.992;4.504;2023-07-24T10:01:31;2.84;;;2.84;;
71176;SDS011;58877;51.992;4.504;2023-07-24T10:04:06;2.74;;;2.74;;
71176;SDS011;58877;51.992;4.504;2023-07-24T10:06:41;2.95;;;2.95;;
71176;SDS011;58877;51.992;4.504;2023-07-24T10:09:11;3.25;;;3.25;;
71176;SDS011;58877;51.992;4.504;2023-07-24T10:11:56;2.95;;;2.94;;
71176;SDS011;58877;51.992;4.504;2023-07-24T10:14:26;3.25;;;3.24;;
71176;SDS011;58877;51.992;4.504;2023-07-24T10:17:12;3.40;;;3.39;;
71176;SDS011;58877;51.992;4.504;2023-07-24T10:20:01;3.07;;;3.07;;
71176;SDS011;58877;51.992;4.504;2023-07-24T10:22:44;3.45;;;3.44;;
71176;SDS011;58877;51.992;4.504;2023-07-24T10:25:28;3.65;;;3.65;;
71176;SDS011;58877;51.992;4.504;2023-07-24T10:28:00;2.93;;;2.93;;
71176;SDS011;58877;51.992;4.504;2023-07-24T10:36:19;3.41;;;3.41;;
71176;SDS011;58877;51.992;4.504;2023-07-24T10:38:52;2.76;;;2.76;;
71176;SDS011;58877;51.992;4.504;2023-07-24T10:41:38;2.46;;;2.46;;
71176;SDS011;58877;51.992;4.504;2023-07-24T10:44:17;2.92;;;2.92;;
71176;SDS011;58877;51.992;4.504;2023-07-24T10:46:49;2.90;;;2.90;;
71176;SDS011;58877;51.992;4.504;2023-07-24T10:49:27;2.71;;;2.71;;
71176;SDS011;58877;51.992;4.504;2023-07-24T10:52:09;2.95;;;2.95;;
71176;SDS011;58877;51.992;4.504;2023-07-24T10:57:33;2.87;;;2.87;;
71176;SDS011;58877;51.992;4.504;2023-07-24T11:00:14;3.05;;;3.05;;
71176;SDS011;58877;51.992;4.504;2023-07-24T11:02:50;3.18;;;3.18;;
71176;SDS011;58877;51.992;4.504;2023-07-24T11:08:31;3.11;;;3.11;;
71176;SDS011;58877;51.992;4.504;2023-07-24T11:11:14;3.26;;;3.26;;
71176;SDS011;58877;51.992;4.504;2023-07-24T11:14:29;3.24;;;3.24;;
71176;SDS011;58877;51.992;4.504;2023-07-24T11:17:22;3.22;;;3.22;;
71176;SDS011;58877;51.992;4.504;2023-07-24T11:20:58;3.49;;;3.49;;
71176;SDS011;58877;51.992;4.504;2023-07-24T11:23:13;4.10;;;4.10;;
71176;SDS011;58877;51.992;4.504;2023-07-24T11:25:47;3.80;;;3.80;;
71176;SDS011;58877;51.992;4.504;2023-07-24T11:31:45;3.64;;;3.64;;
71176;SDS011;58877;51.992;4.504;2023-07-24T11:34:47;4.09;;;4.09;;
71176;SDS011;58877;51.992;4.504;2023-07-24T11:37:23;3.37;;;3.37;;
71176;SDS011;58877;51.992;4.504;2023-07-24T11:42:33;3.20;;;3.20;;
71176;SDS011;58877;51.992;4.504;2023-07-24T11:45:30;3.17;;;3.17;;
71176;SDS011;58877;51.992;4.504;2023-07-24T11:48:08;2.35;;;2.35;;
71176;SDS011;58877;51.992;4.504;2023-07-24T11:50:52;2.89;;;2.89;;
71176;SDS011;58877;51.992;4.504;2023-07-24T11:53:50;2.35;;;2.35;;
71176;SDS011;58877;51.992;4.504;2023-07-24T11:56:19;2.43;;;2.43;;
71176;SDS011;58877;51.992;4.504;2023-07-24T11:59:18;2.66;;;2.66;;
71176;SDS011;58877;51.992;4.504;2023-07-24T12:01:50;2.45;;;2.45;;
71176;SDS011;58877;51.992;4.504;2023-07-24T12:04:30;2.55;;;2.55;;
71176;SDS011;58877;51.992;4.504;2023-07-24T12:07:20;2.66;;;2.66;;
71176;SDS011;58877;51.992;4.504;2023-07-24T12:10:09;2.16;;;2.16;;
71176;SDS011;58877;51.992;4.504;2023-07-24T12:12:46;2.37;;;2.37;;
71176;SDS011;58877;51.992;4.504;2023-07-24T12:15:13;2.84;;;2.84;;
71176;SDS011;58877;51.992;4.504;2023-07-24T12:17:46;2.89;;;2.89;;
71176;SDS011;58877;51.992;4.504;2023-07-24T12:20:22;2.27;;;2.27;;
71176;SDS011;58877;51.992;4.504;2023-07-24T12:22:48;2.22;;;2.22;;
71176;SDS011;58877;51.992;4.504;2023-07-24T12:25:22;2.35;;;2.35;;
71176;SDS011;58877;51.992;4.504;2023-07-24T12:27:49;2.51;;;2.51;;
71176;SDS011;58877;51.992;4.504;2023-07-24T12:30:34;2.39;;;2.39;;
71176;SDS011;58877;51.992;4.504;2023-07-24T12:33:24;2.48;;;2.48;;
71176;SDS011;58877;51.992;4.504;2023-07-24T12:35:52;2.41;;;2.41;;
71176;SDS011;58877;51.992;4.504;2023-07-24T12:38:32;2.09;;;2.09;;
71176;SDS011;58877;51.992;4.504;2023-07-24T12:41:01;2.16;;;2.16;;
71176;SDS011;58877;51.992;4.504;2023-07-24T12:43:40;2.15;;;2.15;;
71176;SDS011;58877;51.992;4.504;2023-07-24T12:46:36;2.14;;;2.14;;
71176;SDS011;58877;51.992;4.504;2023-07-24T12:52:00;1.95;;;1.95;;
71176;SDS011;58877;51.992;4.504;2023-07-24T12:54:44;2.10;;;2.10;;
71176;SDS011;58877;51.992;4.504;2023-07-24T12:57:42;1.88;;;1.88;;
71176;SDS011;58877;51.992;4.504;2023-07-24T13:00:21;2.11;;;2.11;;
71176;SDS011;58877;51.992;4.504;2023-07-24T13:03:05;1.75;;;1.75;;
71176;SDS011;58877;51.992;4.504;2023-07-24T13:05:44;1.92;;;1.92;;
71176;SDS011;58877;51.992;4.504;2023-07-24T13:08:20;1.86;;;1.86;;
71176;SDS011;58877;51.992;4.504;2023-07-24T13:11:03;1.42;;;1.42;;
71176;SDS011;58877;51.992;4.504;2023-07-24T13:14:02;1.81;;;1.81;;
71176;SDS011;58877;51.992;4.504;2023-07-24T13:16:43;1.56;;;1.56;;
71176;SDS011;58877;51.992;4.504;2023-07-24T13:19:10;1.71;;;1.71;;
71176;SDS011;58877;51.992;4.504;2023-07-24T13:21:42;2.00;;;2.00;;
71176;SDS011;58877;51.992;4.504;2023-07-24T13:24:17;1.99;;;1.97;;
71176;SDS011;58877;51.992;4.504;2023-07-24T13:26:44;1.90;;;1.85;;
71176;SDS011;58877;51.992;4.504;2023-07-24T13:29:22;1.84;;;1.76;;
71176;SDS011;58877;51.992;4.504;2023-07-24T13:31:56;1.86;;;1.77;;
71176;SDS011;58877;51.992;4.504;2023-07-24T13:34:24;1.92;;;1.83;;
71176;SDS011;58877;51.992;4.504;2023-07-24T13:36:54;2.01;;;1.87;;
71176;SDS011;58877;51.992;4.504;2023-07-24T13:39:28;1.59;;;1.46;;
71176;SDS011;58877;51.992;4.504;2023-07-24T13:41:58;2.07;;;1.92;;
71176;SDS011;58877;51.992;4.504;2023-07-24T13:44:41;2.26;;;2.10;;
71176;SDS011;58877;51.992;4.504;2023-07-24T13:47:08;1.53;;;1.43;;
71176;SDS011;58877;51.992;4.504;2023-07-24T13:52:41;1.51;;;1.38;;
71176;SDS011;58877;51.992;4.504;2023-07-24T13:57:56;1.74;;;1.57;;
71176;SDS011;58877;51.992;4.504;2023-07-24T14:00:31;1.99;;;1.78;;
71176;SDS011;58877;51.992;4.504;2023-07-24T14:02:59;1.81;;;1.59;;
71176;SDS011;58877;51.992;4.504;2023-07-24T14:05:35;1.45;;;1.26;;
71176;SDS011;58877;51.992;4.504;2023-07-24T14:08:10;2.26;;;1.92;;
71176;SDS011;58877;51.992;4.504;2023-07-24T14:10:37;2.43;;;1.98;;
71176;SDS011;58877;51.992;4.504;2023-07-24T14:13:03;2.11;;;1.69;;
71176;SDS011;58877;51.992;4.504;2023-07-24T14:15:30;2.08;;;1.66;;
71176;SDS011;58877;51.992;4.504;2023-07-24T14:18:09;2.39;;;1.87;;
71176;SDS011;58877;51.992;4.504;2023-07-24T14:20:52;1.98;;;1.56;;
71176;SDS011;58877;51.992;4.504;2023-07-24T14:23:24;2.39;;;1.85;;
71176;SDS011;58877;51.992;4.504;2023-07-24T14:29:19;2.11;;;1.64;;
71176;SDS011;58877;51.992;4.504;2023-07-24T14:31:55;2.14;;;1.66;;
71176;SDS011;58877;51.992;4.504;2023-07-24T14:34:41;1.89;;;1.46;;
71176;SDS011;58877;51.992;4.504;2023-07-24T14:37:18;2.13;;;1.66;;
71176;SDS011;58877;51.992;4.504;2023-07-24T14:39:57;2.61;;;2.02;;
71176;SDS011;58877;51.992;4.504;2023-07-24T14:42:28;2.11;;;1.64;;
71176;SDS011;58877;51.992;4.504;2023-07-24T14:44:57;1.65;;;1.29;;
71176;SDS011;58877;51.992;4.504;2023-07-24T14:47:30;1.86;;;1.45;;
71176;SDS011;58877;51.992;4.504;2023-07-24T14:50:17;1.99;;;1.53;;
71176;SDS011;58877;51.992;4.504;2023-07-24T14:52:47;1.27;;;1.01;;
71176;SDS011;58877;51.992;4.504;2023-07-24T14:55:14;1.14;;;0.91;;
71176;SDS011;58877;51.992;4.504;2023-07-24T14:57:41;1.16;;;0.93;;
71176;SDS011;58877;51.992;4.504;2023-07-24T15:00:08;1.26;;;1.00;;
71176;SDS011;58877;51.992;4.504;2023-07-24T15:02:34;1.04;;;0.83;;
71176;SDS011;58877;51.992;4.504;2023-07-24T15:05:00;1.12;;;0.88;;
71176;SDS011;58877;51.992;4.504;2023-07-24T15:07:35;1.10;;;0.86;;
71176;SDS011;58877;51.992;4.504;2023-07-24T15:10:02;1.09;;;0.85;;
71176;SDS011;58877;51.992;4.504;2023-07-24T15:12:28;0.64;;;0.50;;
71176;SDS011;58877;51.992;4.504;2023-07-24T15:15:05;1.03;;;0.80;;
71176;SDS011;58877;51.992;4.504;2023-07-24T15:17:38;0.71;;;0.56;;
71176;SDS011;58877;51.992;4.504;2023-07-24T15:20:18;0.86;;;0.68;;
71176;SDS011;58877;51.992;4.504;2023-07-24T15:23:06;0.61;;;0.47;;
71176;SDS011;58877;51.992;4.504;2023-07-24T15:26:01;0.75;;;0.58;;
71176;SDS011;58877;51.992;4.504;2023-07-24T15:28:35;0.78;;;0.61;;
71176;SDS011;58877;51.992;4.504;2023-07-24T15:31:12;0.90;;;0.70;;
71176;SDS011;58877;51.992;4.504;2023-07-24T15:33:50;1.22;;;0.94;;
71176;SDS011;58877;51.992;4.504;2023-07-24T15:36:36;1.09;;;0.83;;
71176;SDS011;58877;51.992;4.504;2023-07-24T15:39:54;1.02;;;0.78;;
71176;SDS011;58877;51.992;4.504;2023-07-24T15:42:24;1.19;;;0.91;;
71176;SDS011;58877;51.992;4.504;2023-07-24T15:44:53;1.23;;;0.95;;
71176;SDS011;58877;51.992;4.504;2023-07-24T15:47:19;1.06;;;0.83;;
71176;SDS011;58877;51.992;4.504;2023-07-24T15:49:45;1.07;;;0.85;;
71176;SDS011;58877;51.992;4.504;2023-07-24T15:52:13;1.11;;;0.90;;
71176;SDS011;58877;51.992;4.504;2023-07-24T15:54:39;1.19;;;0.99;;
71176;SDS011;58877;51.992;4.504;2023-07-24T15:57:06;1.24;;;1.05;;
71176;SDS011;58877;51.992;4.504;2023-07-24T15:59:35;1.51;;;1.29;;
71176;SDS011;58877;51.992;4.504;2023-07-24T16:02:07;1.73;;;1.48;;
71176;SDS011;58877;51.992;4.504;2023-07-24T16:04:36;1.29;;;1.09;;
71176;SDS011;58877;51.992;4.504;2023-07-24T16:07:03;1.46;;;1.26;;